Suttons Bay, MI

11:21 AM EDT on April 19, 2015 (GMT -0400)
KMISUTTO2 | | Change Station
CLOSE
Current Station
Personal Weather Station
Location: Suttons Bay, MI
Elevation: 797 ft
Nearby Weather Stations

Elev 797 ft 45.01 °N, 85.64 °W | Updated 1 minute ago

Partly Cloudy
Partly Cloudy
53.6 °F
Feels Like 53.6 °F
N
4.0
Wind Variable Wind from ESE
Gusts 8.0 mph

Today
High -- | Low -- °F
--% Chance of Precip.
Yesterday
High -- | Low -- °F
Precip. -- in
6:51 AM 8:32 PM
New Moon, 1% visible
Pressure 29.95 in
Visibility 10.0 miles
Clouds Few 11000 ft
Scattered Clouds 20000 ft
Dew Point 32 °F
Humidity 43%
Rainfall 0.00 in
Snow Depth Not available.
UV 4 out of 12
Pollen 9.70 out of 12
Air Quality Not available.
Flu Activity Regional
METAR KTVC 191453Z 13012G20KT 10SM FEW110 SCT200 13/M03 A2994 RMK AO2 SLP142 T01331033 58033

More Conditions Fewer Conditions

Pressure 29.95 in
Visibility 10.0 miles
Clouds Few 11000 ft
Scattered Clouds 20000 ft
Dew Point 32 °F
Humidity 43%
Rainfall 0.00 in
Snow Depth Not available.
UV 4 out of 12
Pollen 9.70 out of 12
Air Quality Not available.
Flu Activity Regional
METAR KTVC 191453Z 13012G20KT 10SM FEW110 SCT200 13/M03 A2994 RMK AO2 SLP142 T01331033 58033

More Conditions Fewer Conditions

Nowcast | as of 11:00 am EDT on April 19, 2015

At 12 PM...partly cloudy. Temperature 54. Southeast winds 12 mph. At 2 PM...mostly cloudy. Temperature 59. Southeast winds 10 mph. At 4 PM...mostly cloudy. Temperature 62. East winds 10 mph. At 6 PM...rain likely. Temperature 61. East winds 10 mph.

×

10-Day Weather Forecast

Almanac

Astronomy

Apr. 19, 2015 Rise Set
Actual Time
Civil Twilight
Nautical Twilight
Astronomical Twilight
Moon
Length of Visible Light
Length of Day
Tomorrow will be .
, % of the Moon is Illuminated

Today's Extremes

State Highs State Lows

Community

WunderPhotos

Upload Photos

1,814,834 photos uploaded!

WunderBlogs® & News

Nearby

Air Quality

  Air Quality AQ Index Pollutant
Not available.

Snow Depth

Station Depth Elevation

Earthquake Activity

City Distance Mag. Time & Date
Minimum magnitude displayed is 2.5.

Coastal Water Temperatures

Place Temperature

Stations

Nearby Weather Stations

Station Location Temp. Windchill Dew Point Humidity Wind Precip. Elev Updated Type